Time;durP1;ratioP1;P1;durP2;ratioP2;P2;SDS_P1;SDS_P2;PMS_P1;PMS_P2;Temp;Humidity;BMP_temperature;BMP_pressure;BME280_temperature;BME280_humidity;BME280_pressure;Samples;Min_cycle;Max_cycle;Signal;HPM_P1;HPM_P2
2021/03/03 00:00:32;;;;;;;;;;;;;;;19.57;35.22;102034.81;5137165;27;830;-48
2021/03/03 00:02:57;;;;;;;;;;;;;;;19.55;35.21;102031.50;5137249;27;819;-49
2021/03/03 00:05:23;;;;;;;;;;;;;;;20.45;33.46;102023.25;5137551;27;763;-49
2021/03/03 00:07:48;;;;;;;;;;;;;;;20.14;34.08;102027.78;5137157;27;763;-48
2021/03/03 00:10:14;;;;;;;;;;;;;;;20.14;34.07;102031.38;5137415;27;1019;-48
2021/03/03 00:12:39;;;;;;;;;;;;;;;19.64;35.08;102019.72;5137404;27;790;-47
2021/03/03 00:15:05;;;;;;;;;;;;;;;19.38;35.85;102026.94;5137511;27;759;-49
2021/03/03 00:17:30;;;;;;;;;;;;;;;20.30;33.92;102025.94;5126593;28;1906;-50
2021/03/03 00:19:56;;;;;;;;;;;;;;;20.30;33.65;102021.25;5117159;28;771;-54
2021/03/03 00:22:21;;;;;;;;;;;;;;;20.22;33.91;102015.41;5116558;28;810;-48
2021/03/03 00:24:47;;;;;;;;;;;;;;;19.73;34.71;102020.03;5123655;28;933;-49
2021/03/03 00:27:12;;;;;;;;;;;;;;;19.17;35.95;102022.31;5139100;27;759;-49
2021/03/03 00:29:38;;;;;;;;;;;;;;;20.01;34.45;102018.06;5141564;27;815;-47
2021/03/03 00:32:03;;;;;;;;;;;;;;;20.57;33.17;102024.97;5141182;27;862;-49
2021/03/03 00:34:29;;;;;;;;;;;;;;;20.06;34.02;102012.53;5141683;27;802;-49
2021/03/03 00:36:54;;;;;;;;;;;;;;;19.89;34.50;102020.19;5141087;27;1905;-47
2021/03/03 00:39:19;;;;;;;;;;;;;;;19.27;35.67;102022.44;5140745;27;1008;-48
2021/03/03 00:41:45;;;;;;;;;;;;;;;20.07;34.17;102014.22;5141277;27;823;-48
2021/03/03 00:44:10;;;;;;;;;;;;;;;20.45;33.32;102011.38;5141273;27;783;-48
2021/03/03 00:46:36;;;;;;;;;;;;;;;20.06;34.11;102007.03;5141137;27;759;-48
2021/03/03 00:49:03;;;;;;;;;;;;;;;20.00;34.20;102011.69;5140967;27;1062;-48
2021/03/03 00:51:29;;;;;;;;;;;;;;;19.55;34.98;102021.28;5140967;27;791;-47
2021/03/03 00:53:55;;;;;;;;;;;;;;;19.82;34.94;102012.13;5139125;27;1198;-47
2021/03/03 00:56:21;;;;;;;;;;;;;;;20.62;33.12;102017.53;5139785;27;1902;-49
2021/03/03 00:58:47;;;;;;;;;;;;;;;20.17;34.02;102010.69;5140863;27;841;-48
2021/03/03 01:01:13;;;;;;;;;;;;;;;20.08;34.04;102010.38;5140785;27;784;-48
2021/03/03 01:03:40;;;;;;;;;;;;;;;19.32;35.40;102005.91;5139788;27;1108;-47
2021/03/03 01:06:18;;;;;;;;;;;;;;;19.92;34.65;102000.31;5139874;27;1104;-49
2021/03/03 01:08:44;;;;;;;;;;;;;;;20.51;33.43;102010.31;5139430;27;1231;-47
2021/03/03 01:11:10;;;;;;;;;;;;;;;20.17;33.84;102006.00;5139157;27;985;-49
2021/03/03 01:13:38;;;;;;;;;;;;;;;19.99;34.18;101999.00;5140742;27;882;-48
2021/03/03 01:16:08;;;;;;;;;;;;;;;19.38;35.56;101999.34;5139234;27;1910;-48
2021/03/03 01:18:34;;;;;;;;;;;;;;;20.28;33.72;101995.00;5120172;27;1683;-48
2021/03/03 01:20:59;;;;;;;;;;;;;;;20.46;33.29;102008.34;5120616;28;758;-47
2021/03/03 01:23:25;;;;;;;;;;;;;;;20.20;33.81;101998.28;5119552;28;738;-48
2021/03/03 01:25:50;;;;;;;;;;;;;;;19.75;34.60;102009.56;5137810;27;886;-48
2021/03/03 01:28:16;;;;;;;;;;;;;;;19.62;34.96;101999.00;5140443;27;822;-46
2021/03/03 01:30:41;;;;;;;;;;;;;;;20.35;33.84;102001.09;5139919;27;795;-46
2021/03/03 01:33:06;;;;;;;;;;;;;;;20.33;33.49;102004.13;5140239;27;838;-46
2021/03/03 01:35:32;;;;;;;;;;;;;;;20.25;33.66;101999.13;5140206;27;759;-46
2021/03/03 01:37:58;;;;;;;;;;;;;;;19.75;34.77;102003.22;5138608;27;1984;-47
2021/03/03 01:40:23;;;;;;;;;;;;;;;19.31;35.79;102004.25;5139484;27;980;-50
2021/03/03 01:42:49;;;;;;;;;;;;;;;20.22;33.85;101996.09;5140070;27;779;-49
2021/03/03 01:45:15;;;;;;;;;;;;;;;20.50;33.32;102009.44;5139575;27;809;-48
2021/03/03 01:47:40;;;;;;;;;;;;;;;20.11;33.85;102004.31;5139995;27;842;-49
2021/03/03 01:50:06;;;;;;;;;;;;;;;19.91;34.49;101995.88;5140005;27;1173;-47
2021/03/03 01:52:32;;;;;;;;;;;;;;;19.27;35.68;102003.13;5139368;27;766;-47
2021/03/03 01:54:57;;;;;;;;;;;;;;;19.63;35.00;102017.22;5138306;27;965;-47
2021/03/03 01:57:23;;;;;;;;;;;;;;;20.49;33.25;102006.97;5138595;27;1918;-47
2021/03/03 01:59:48;;;;;;;;;;;;;;;20.15;34.12;102013.72;5139522;27;873;-47
2021/03/03 02:02:14;;;;;;;;;;;;;;;20.10;33.87;102013.69;5139766;27;831;-47
2021/03/03 02:04:39;;;;;;;;;;;;;;;19.54;34.93;102016.03;5139956;27;838;-46
2021/03/03 02:07:14;;;;;;;;;;;;;;;19.90;34.23;102024.63;5139057;27;791;-47
2021/03/03 02:09:59;;;;;;;;;;;;;;;20.65;33.17;102018.88;5138257;27;945;-50
2021/03/03 02:12:40;;;;;;;;;;;;;;;20.09;33.87;102013.94;5138233;27;763;-47
2021/03/03 02:15:06;;;;;;;;;;;;;;;19.96;34.27;102024.38;5137860;27;746;-49
2021/03/03 02:17:32;;;;;;;;;;;;;;;19.42;35.16;102030.84;5127984;27;1975;-48
2021/03/03 02:20:01;;;;;;;;;;;;;;;19.95;34.33;102024.63;5118960;28;789;-49
2021/03/03 02:22:26;;;;;;;;;;;;;;;20.54;33.02;102031.00;5117585;28;969;-47
2021/03/03 02:24:53;;;;;;;;;;;;;;;20.15;34.00;102030.28;5126840;27;941;-47
2021/03/03 02:27:21;;;;;;;;;;;;;;;19.95;34.01;102038.44;5139048;27;835;-47
2021/03/03 02:29:46;;;;;;;;;;;;;;;19.26;35.57;102046.41;5138865;27;791;-48
2021/03/03 02:32:12;;;;;;;;;;;;;;;20.05;34.14;102040.44;5139232;27;862;-47
2021/03/03 02:34:37;;;;;;;;;;;;;;;20.49;33.26;102035.41;5137545;27;1451;-50
2021/03/03 02:37:02;;;;;;;;;;;;;;;20.03;33.90;102026.88;5138995;27;1917;-52
2021/03/03 02:39:28;;;;;;;;;;;;;;;19.91;34.14;102040.06;5139361;27;957;-50
2021/03/03 02:41:54;;;;;;;;;;;;;;;19.40;35.17;102030.25;5137234;27;796;-48
2021/03/03 02:44:19;;;;;;;;;;;;;;;20.04;34.23;102030.50;5137312;27;819;-48
2021/03/03 02:46:45;;;;;;;;;;;;;;;20.69;32.71;102033.88;5138694;27;854;-47
2021/03/03 02:49:11;;;;;;;;;;;;;;;20.14;33.77;102047.13;5138305;27;1189;-52
2021/03/03 02:51:36;;;;;;;;;;;;;;;19.98;34.27;102051.72;5137312;27;834;-48
2021/03/03 02:54:02;;;;;;;;;;;;;;;19.47;35.17;102061.25;5138275;27;972;-50
2021/03/03 02:56:28;;;;;;;;;;;;;;;19.41;35.41;102054.00;5138924;27;1977;-48
2021/03/03 02:58:53;;;;;;;;;;;;;;;20.29;33.42;102058.25;5138339;27;797;-47
2021/03/03 03:01:19;;;;;;;;;;;;;;;20.11;33.80;102054.00;5137154;27;743;-50
2021/03/03 03:04:05;;;;;;;;;;;;;;;20.02;33.95;102047.34;5137379;27;783;-48
2021/03/03 03:06:40;;;;;;;;;;;;;;;19.55;34.82;102046.13;5137717;27;941;-47
2021/03/03 03:09:07;;;;;;;;;;;;;;;19.43;35.16;102051.81;5136799;27;1007;-47
2021/03/03 03:11:32;;;;;;;;;;;;;;;20.34;33.30;102038.09;5137202;27;755;-49
2021/03/03 03:14:08;;;;;;;;;;;;;;;20.15;33.59;102044.09;5136631;27;774;-48
2021/03/03 03:16:33;;;;;;;;;;;;;;;20.09;34.02;102042.41;5134737;27;1971;-47
2021/03/03 03:18:59;;;;;;;;;;;;;;;19.56;35.00;102044.19;5116597;28;790;-47
2021/03/03 03:21:25;;;;;;;;;;;;;;;19.47;35.20;102050.19;5116202;28;809;-48
2021/03/03 03:23:50;;;;;;;;;;;;;;;20.43;33.30;102047.56;5117526;28;806;-48
2021/03/03 03:26:16;;;;;;;;;;;;;;;20.16;33.45;102043.00;5137992;27;993;-48
2021/03/03 03:28:41;;;;;;;;;;;;;;;20.12;33.89;102052.09;5137557;27;849;-48
2021/03/03 03:31:07;;;;;;;;;;;;;;;19.81;34.25;102062.91;5136435;27;886;-48
2021/03/03 03:33:32;;;;;;;;;;;;;;;19.28;35.57;102071.81;5136728;27;807;-47
2021/03/03 03:35:58;;;;;;;;;;;;;;;20.14;33.64;102071.97;5137631;27;1921;-50
2021/03/03 03:38:25;;;;;;;;;;;;;;;20.33;33.19;102064.91;5137945;27;882;-49
2021/03/03 03:40:51;;;;;;;;;;;;;;;20.17;33.51;102071.44;5137825;27;964;-51
2021/03/03 03:43:16;;;;;;;;;;;;;;;19.90;34.00;102072.38;5136147;27;807;-49
2021/03/03 03:45:42;;;;;;;;;;;;;;;19.41;35.16;102076.06;5137736;27;763;-49
2021/03/03 03:48:07;;;;;;;;;;;;;;;20.18;33.59;102068.41;5136531;27;783;-49
2021/03/03 03:50:33;;;;;;;;;;;;;;;20.84;32.34;102072.63;5137050;27;1191;-47
2021/03/03 03:52:58;;;;;;;;;;;;;;;21.15;31.87;102075.50;5137696;27;850;-47
2021/03/03 03:55:30;;;;;;;;;;;;;;;20.51;33.13;102082.97;5137312;27;956;-46
2021/03/03 03:57:56;;;;;;;;;;;;;;;20.44;33.09;102081.53;5136909;27;1909;-51
2021/03/03 04:00:21;;;;;;;;;;;;;;;19.73;34.47;102088.22;5137550;27;826;-49
2021/03/03 04:02:47;;;;;;;;;;;;;;;19.38;35.29;102098.66;5136705;27;818;-54
2021/03/03 04:05:13;;;;;;;;;;;;;;;19.90;34.40;102099.97;5136867;27;803;-45
2021/03/03 04:07:39;;;;;;;;;;;;;;;20.54;32.93;102091.81;5137510;27;858;-44
2021/03/03 04:10:04;;;;;;;;;;;;;;;20.06;33.78;102098.16;5137108;27;980;-47
2021/03/03 04:12:30;;;;;;;;;;;;;;;20.17;33.63;102102.66;5136869;27;839;-46
2021/03/03 04:14:55;;;;;;;;;;;;;;;19.49;35.10;102111.44;5137336;27;866;-46
2021/03/03 04:17:21;;;;;;;;;;;;;;;19.28;35.60;102115.09;5128190;28;1898;-57
2021/03/03 04:19:46;;;;;;;;;;;;;;;20.25;33.75;102117.91;5116422;28;502;-49
2021/03/03 04:22:13;;;;;;;;;;;;;;;20.17;33.75;102127.53;5115242;28;823;-47
2021/03/03 04:24:38;;;;;;;;;;;;;;;20.13;33.79;102120.88;5115234;28;835;-50
2021/03/03 04:27:04;;;;;;;;;;;;;;;19.68;34.76;102135.91;5116424;28;862;-52
2021/03/03 04:29:29;;;;;;;;;;;;;;;19.48;35.21;102142.88;5116645;28;766;-51
2021/03/03 04:31:55;;;;;;;;;;;;;;;20.44;33.19;102143.16;5116648;28;802;-49
2021/03/03 04:34:20;;;;;;;;;;;;;;;20.24;33.64;102138.31;5116108;28;778;-48
2021/03/03 04:36:46;;;;;;;;;;;;;;;20.10;33.72;102143.47;5116486;28;1976;-50
2021/03/03 04:39:11;;;;;;;;;;;;;;;19.75;34.43;102147.56;5116048;28;973;-50
2021/03/03 04:41:36;;;;;;;;;;;;;;;19.20;35.52;102145.91;5116348;28;755;-48
2021/03/03 04:44:02;;;;;;;;;;;;;;;20.07;34.00;102148.69;5116200;28;794;-57
2021/03/03 04:46:27;;;;;;;;;;;;;;;20.44;33.15;102162.50;5116726;28;771;-53
2021/03/03 04:48:53;;;;;;;;;;;;;;;20.04;33.68;102163.84;5114884;28;1105;-49
2021/03/03 04:51:18;;;;;;;;;;;;;;;19.86;34.25;102159.56;5115596;28;870;-52
2021/03/03 04:53:44;;;;;;;;;;;;;;;19.29;35.40;102167.25;5115512;28;874;-52
2021/03/03 04:56:09;;;;;;;;;;;;;;;19.72;34.80;102164.63;5128044;28;1909;-48
2021/03/03 04:58:35;;;;;;;;;;;;;;;20.51;33.11;102173.34;5118676;28;823;-52
2021/03/03 05:01:01;;;;;;;;;;;;;;;20.12;33.81;102171.66;5115946;28;905;-49
2021/03/03 05:03:26;;;;;;;;;;;;;;;20.06;33.88;102175.47;5116217;28;766;-55
2021/03/03 05:05:52;;;;;;;;;;;;;;;19.61;34.73;102179.44;5115875;28;853;-45
2021/03/03 05:08:17;;;;;;;;;;;;;;;19.57;34.70;102176.38;5114606;28;1550;-54
2021/03/03 05:10:42;;;;;;;;;;;;;;;20.46;32.98;102179.63;5114659;28;1188;-53
2021/03/03 05:13:15;;;;;;;;;;;;;;;20.29;33.33;102187.25;5117313;28;822;-46
2021/03/03 05:15:40;;;;;;;;;;;;;;;20.18;33.52;102183.56;5119988;28;751;-47
2021/03/03 05:18:06;;;;;;;;;;;;;;;19.65;34.39;102194.38;5119962;28;1957;-46
2021/03/03 05:20:31;;;;;;;;;;;;;;;19.28;35.20;102193.16;5119576;28;834;-51
2021/03/03 05:22:57;;;;;;;;;;;;;;;20.28;33.60;102197.47;5119882;28;850;-50
2021/03/03 05:25:22;;;;;;;;;;;;;;;20.60;32.60;102202.09;5119548;28;1004;-49
2021/03/03 05:27:47;;;;;;;;;;;;;;;20.11;33.80;102200.38;5116813;28;874;-47
2021/03/03 05:30:13;;;;;;;;;;;;;;;19.92;34.23;102199.94;5119208;28;823;-47
2021/03/03 05:32:39;;;;;;;;;;;;;;;19.40;34.86;102200.44;5119518;28;835;-51
2021/03/03 05:35:04;;;;;;;;;;;;;;;19.94;34.03;102202.44;5118874;28;791;-46
2021/03/03 05:37:30;;;;;;;;;;;;;;;20.57;32.83;102196.31;5119664;28;1978;-47
2021/03/03 05:39:55;;;;;;;;;;;;;;;20.13;33.59;102203.72;5128157;27;957;-47
2021/03/03 05:42:21;;;;;;;;;;;;;;;19.99;34.08;102207.97;5139587;27;541;-46
2021/03/03 05:44:46;;;;;;;;;;;;;;;19.43;34.93;102205.44;5140327;27;834;-46
2021/03/03 05:47:13;;;;;;;;;;;;;;;19.96;34.26;102214.88;5140067;27;854;-48
2021/03/03 05:49:38;;;;;;;;;;;;;;;20.50;33.01;102208.41;5138150;27;1180;-47
2021/03/03 05:52:04;;;;;;;;;;;;;;;20.10;33.67;102219.97;5138786;27;831;-44
2021/03/03 05:54:29;;;;;;;;;;;;;;;20.01;33.95;102225.13;5138171;27;1332;-54
2021/03/03 05:56:55;;;;;;;;;;;;;;;19.36;35.03;102227.69;5137781;27;1988;-55
2021/03/03 05:59:20;;;;;;;;;;;;;;;20.09;33.69;102229.34;5138585;27;750;-56
2021/03/03 06:01:46;;;;;;;;;;;;;;;20.57;32.72;102226.69;5138113;27;852;-51
2021/03/03 06:04:11;;;;;;;;;;;;;;;20.10;33.62;102237.34;5139184;27;839;-56
2021/03/03 06:06:41;;;;;;;;;;;;;;;20.05;33.78;102239.22;5139959;27;850;-55
2021/03/03 06:09:06;;;;;;;;;;;;;;;19.40;34.85;102239.88;5139816;27;965;-56
2021/03/03 06:11:32;;;;;;;;;;;;;;;19.91;34.02;102241.56;5139043;27;806;-54
2021/03/03 06:14:01;;;;;;;;;;;;;;;20.59;32.76;102243.84;5137987;27;1080;-53
2021/03/03 06:16:26;;;;;;;;;;;;;;;20.08;33.79;102244.25;5138014;27;1901;-56
2021/03/03 06:18:53;;;;;;;;;;;;;;;20.10;33.81;102242.06;5118573;28;803;-56
2021/03/03 06:21:26;;;;;;;;;;;;;;;19.45;34.89;102248.22;5115537;28;931;-48
2021/03/03 06:24:00;;;;;;;;;;;;;;;19.72;34.68;102252.94;5117700;27;847;-53
2021/03/03 06:26:26;;;;;;;;;;;;;;;20.49;32.87;102253.69;5097927;28;791;-58
2021/03/03 06:28:51;;;;;;;;;;;;;;;20.13;33.65;102247.03;5098185;28;763;-50
2021/03/03 06:31:33;;;;;;;;;;;;;;;19.93;33.93;102264.25;5097963;28;755;-58
2021/03/03 06:34:09;;;;;;;;;;;;;;;19.62;34.76;102258.38;5097937;28;743;-57
2021/03/03 06:36:35;;;;;;;;;;;;;;;19.66;34.72;102262.28;5096704;28;1970;-57
2021/03/03 06:39:17;;;;;;;;;;;;;;;20.52;33.13;102267.00;5099405;28;978;-57
2021/03/03 06:41:42;;;;;;;;;;;;;;;20.18;33.59;102264.50;5118011;28;803;-58
2021/03/03 06:44:08;;;;;;;;;;;;;;;20.11;33.63;102268.56;5116317;28;775;-51
2021/03/03 06:46:34;;;;;;;;;;;;;;;19.62;34.65;102263.88;5118304;28;790;-51
2021/03/03 06:48:59;;;;;;;;;;;;;;;19.43;35.14;102266.13;5117625;28;1106;-51
2021/03/03 06:51:29;;;;;;;;;;;;;;;20.36;33.39;102273.50;5117692;28;862;-47
2021/03/03 06:53:55;;;;;;;;;;;;;;;20.24;33.41;102261.78;5118235;28;969;-51
2021/03/03 06:56:37;;;;;;;;;;;;;;;20.14;33.48;102257.81;5117581;28;1961;-57
2021/03/03 06:59:15;;;;;;;;;;;;;;;19.66;34.59;102265.03;5117678;28;869;-58
2021/03/03 07:01:40;;;;;;;;;;;;;;;19.81;34.45;102272.66;5118058;28;802;-54
2021/03/03 07:04:26;;;;;;;;;;;;;;;20.54;32.77;102268.66;5117444;28;894;-56
2021/03/03 07:06:52;;;;;;;;;;;;;;;20.18;33.71;102267.25;5117306;28;1067;-57
2021/03/03 07:09:18;;;;;;;;;;;;;;;20.01;33.95;102274.84;5117589;28;1005;-57
2021/03/03 07:11:44;;;;;;;;;;;;;;;19.28;35.09;102264.84;5117219;28;811;-57
2021/03/03 07:14:19;;;;;;;;;;;;;;;19.72;34.51;102275.03;5117643;28;794;-55
2021/03/03 07:16:59;;;;;;;;;;;;;;;20.53;33.12;102273.38;5117584;28;1909;-53
2021/03/03 07:19:25;;;;;;;;;;;;;;;20.09;33.73;102268.84;5117162;28;758;-58
2021/03/03 07:21:50;;;;;;;;;;;;;;;20.06;33.55;102263.81;5117434;28;843;-57
2021/03/03 07:24:16;;;;;;;;;;;;;;;19.42;34.70;102270.81;5117176;28;941;-58
2021/03/03 07:26:41;;;;;;;;;;;;;;;19.67;34.85;102266.72;5116897;28;758;-54
2021/03/03 07:29:07;;;;;;;;;;;;;;;20.47;32.96;102278.00;5116235;28;823;-56
2021/03/03 07:31:32;;;;;;;;;;;;;;;20.20;33.32;102275.28;5115914;28;922;-60
2021/03/03 07:33:57;;;;;;;;;;;;;;;20.22;33.64;102264.81;5116696;28;747;-56
2021/03/03 07:36:23;;;;;;;;;;;;;;;19.64;34.55;102279.09;5115684;28;1981;-55
2021/03/03 07:38:48;;;;;;;;;;;;;;;19.34;35.18;102268.50;5115983;28;762;-59
2021/03/03 07:41:14;;;;;;;;;;;;;;;20.09;33.71;102274.38;5115709;28;942;-57
2021/03/03 07:43:40;;;;;;;;;;;;;;;20.58;32.69;102280.84;5116002;28;874;-57
2021/03/03 07:46:08;;;;;;;;;;;;;;;20.21;33.59;102271.44;5115809;28;1449;-56
2021/03/03 07:48:37;;;;;;;;;;;;;;;20.11;33.48;102288.72;5115611;28;775;-55
2021/03/03 07:51:04;;;;;;;;;;;;;;;19.29;35.27;102276.72;5115747;28;1222;-56
2021/03/03 07:53:30;;;;;;;;;;;;;;;19.82;34.46;102285.38;5117159;28;763;-54
2021/03/03 07:55:56;;;;;;;;;;;;;;;20.55;32.83;102276.69;5116270;28;1081;-56
2021/03/03 07:58:22;;;;;;;;;;;;;;;20.11;33.56;102280.44;5116963;28;1972;-56
2021/03/03 08:00:47;;;;;;;;;;;;;;;20.17;33.73;102281.31;5115616;28;839;-57
2021/03/03 08:03:13;;;;;;;;;;;;;;;19.35;35.21;102283.97;5115186;28;839;-57
2021/03/03 08:05:39;;;;;;;;;;;;;;;19.76;34.35;102286.41;5115343;28;819;-49
2021/03/03 08:08:07;;;;;;;;;;;;;;;20.55;32.96;102284.16;5116953;28;831;-49
2021/03/03 08:10:38;;;;;;;;;;;;;;;20.18;33.51;102274.72;5116188;28;1005;-57
2021/03/03 08:13:03;;;;;;;;;;;;;;;20.13;33.59;102286.56;5116581;28;790;-56
2021/03/03 08:15:33;;;;;;;;;;;;;;;19.39;35.04;102282.38;5116681;28;775;-52
2021/03/03 08:18:13;;;;;;;;;;;;;;;19.89;34.22;102279.66;5116221;28;1983;-51
2021/03/03 08:20:38;;;;;;;;;;;;;;;20.73;32.63;102280.19;5116690;28;835;-52
2021/03/03 08:23:04;;;;;;;;;;;;;;;20.20;33.70;102275.28;5115767;28;850;-50
2021/03/03 08:25:42;;;;;;;;;;;;;;;20.19;33.62;102281.91;5116054;28;949;-53
2021/03/03 08:28:26;;;;;;;;;;;;;;;19.23;35.57;102280.50;5116570;28;775;-51
2021/03/03 08:31:07;;;;;;;;;;;;;;;19.97;34.01;102271.75;5116940;28;763;-50
2021/03/03 08:33:33;;;;;;;;;;;;;;;20.70;32.63;102281.53;5116903;28;790;-49
2021/03/03 08:35:58;;;;;;;;;;;;;;;20.08;33.77;102289.25;5115173;28;822;-51
2021/03/03 08:38:24;;;;;;;;;;;;;;;20.20;33.51;102291.03;5116654;28;1906;-51
2021/03/03 08:40:49;;;;;;;;;;;;;;;19.26;35.17;102285.50;5116384;28;993;-51
2021/03/03 08:43:33;;;;;;;;;;;;;;;19.88;34.41;102297.31;5114882;28;798;-48
2021/03/03 08:45:58;;;;;;;;;;;;;;;20.72;32.65;102292.31;5116166;28;786;-50
2021/03/03 08:48:24;;;;;;;;;;;;;;;20.24;33.64;102292.16;5118613;28;794;-51
2021/03/03 08:50:49;;;;;;;;;;;;;;;20.17;33.52;102298.75;5120370;28;1034;-50
2021/03/03 08:53:25;;;;;;;;;;;;;;;19.47;34.86;102290.22;5120025;28;951;-51
2021/03/03 08:55:50;;;;;;;;;;;;;;;19.78;34.50;102295.25;5118862;28;1017;-51
2021/03/03 08:58:37;;;;;;;;;;;;;;;20.58;33.10;102286.38;5120133;28;1921;-53
2021/03/03 09:01:05;;;;;;;;;;;;;;;20.16;33.47;102296.22;5119936;28;763;-53
2021/03/03 09:03:31;;;;;;;;;;;;;;;20.23;33.69;102296.03;5120141;28;827;-50
2021/03/03 09:05:56;;;;;;;;;;;;;;;19.57;34.96;102295.03;5120160;28;783;-48
2021/03/03 09:08:22;;;;;;;;;;;;;;;19.96;34.33;102294.09;5119868;28;795;-50
2021/03/03 09:10:48;;;;;;;;;;;;;;;20.72;32.89;102304.22;5119686;28;949;-50
2021/03/03 09:13:22;;;;;;;;;;;;;;;20.34;33.24;102301.41;5119950;28;791;-51
2021/03/03 09:16:03;;;;;;;;;;;;;;;20.34;33.18;102297.78;5119717;28;759;-49
2021/03/03 09:18:29;;;;;;;;;;;;;;;19.43;35.17;102305.59;5119654;28;1909;-48
2021/03/03 09:21:12;;;;;;;;;;;;;;;19.70;34.75;102309.50;5119952;28;815;-50
2021/03/03 09:23:38;;;;;;;;;;;;;;;20.59;33.23;102304.63;5119763;28;794;-50
2021/03/03 09:26:17;;;;;;;;;;;;;;;20.31;33.38;102306.59;5119421;28;961;-48
2021/03/03 09:28:42;;;;;;;;;;;;;;;20.25;33.75;102316.75;5120193;28;810;-55
2021/03/03 09:31:08;;;;;;;;;;;;;;;19.39;35.17;102300.84;5119239;28;763;-46
2021/03/03 09:33:34;;;;;;;;;;;;;;;19.76;34.62;102312.06;5119624;28;838;-48
2021/03/03 09:35:59;;;;;;;;;;;;;;;20.56;33.28;102316.22;5119914;28;804;-48
2021/03/03 09:38:25;;;;;;;;;;;;;;;20.39;33.37;102317.19;5119160;28;1918;-48
2021/03/03 09:40:52;;;;;;;;;;;;;;;20.29;33.53;102300.50;5119221;28;1005;-48
2021/03/03 09:43:18;;;;;;;;;;;;;;;19.82;34.25;102304.72;5119427;28;847;-50
2021/03/03 09:45:43;;;;;;;;;;;;;;;19.27;35.69;102304.53;5119320;28;834;-51
2021/03/03 09:48:10;;;;;;;;;;;;;;;20.16;33.93;102304.50;5119306;28;794;-52
2021/03/03 09:50:35;;;;;;;;;;;;;;;20.68;32.72;102314.16;5119281;28;1029;-49
2021/03/03 09:53:01;;;;;;;;;;;;;;;20.33;33.59;102307.19;5118961;28;826;-51
2021/03/03 09:55:31;;;;;;;;;;;;;;;20.20;33.70;102307.59;5118877;28;1039;-52
2021/03/03 09:57:57;;;;;;;;;;;;;;;19.43;35.39;102305.59;5119242;28;1960;-51
2021/03/03 10:00:26;;;;;;;;;;;;;;;19.89;34.53;102296.22;5117665;28;861;-51
2021/03/03 10:02:55;;;;;;;;;;;;;;;20.75;32.80;102309.22;5119417;28;851;-50
2021/03/03 10:05:22;;;;;;;;;;;;;;;21.22;31.91;102295.69;5119183;28;791;-48
2021/03/03 10:07:50;;;;;;;;;;;;;;;20.65;32.87;102303.56;5117262;28;940;-50
2021/03/03 10:10:16;;;;;;;;;;;;;;;20.67;33.02;102302.25;5118762;28;950;-58
2021/03/03 10:12:42;;;;;;;;;;;;;;;19.88;34.29;102300.06;5118930;28;843;-58
2021/03/03 10:15:08;;;;;;;;;;;;;;;19.44;35.47;102298.97;5116711;28;807;-57
2021/03/03 10:17:41;;;;;;;;;;;;;;;19.69;34.71;102296.81;5118701;28;1966;-58
2021/03/03 10:20:08;;;;;;;;;;;;;;;19.72;34.88;102301.81;5118791;28;997;-58
2021/03/03 10:22:34;;;;;;;;;;;;;;;19.74;34.87;102294.09;5118340;28;759;-58
2021/03/03 10:25:00;;;;;;;;;;;;;;;19.87;34.59;102293.72;5118821;28;989;-58
2021/03/03 10:27:28;;;;;;;;;;;;;;;20.13;33.87;102285.69;5118641;28;789;-58
2021/03/03 10:29:54;;;;;;;;;;;;;;;20.10;33.92;102298.09;5118250;28;821;-58
2021/03/03 10:32:19;;;;;;;;;;;;;;;20.11;33.87;102296.19;5119253;28;845;-59
2021/03/03 10:34:45;;;;;;;;;;;;;;;20.15;33.79;102289.88;5118429;28;754;-58
2021/03/03 10:37:23;;;;;;;;;;;;;;;20.19;33.71;102281.91;5118216;28;1905;-58
2021/03/03 10:39:49;;;;;;;;;;;;;;;20.27;33.54;102280.59;5118850;28;965;-58
2021/03/03 10:42:19;;;;;;;;;;;;;;;20.24;33.83;102278.34;5118295;28;811;-58
2021/03/03 10:44:49;;;;;;;;;;;;;;;20.20;33.74;102268.94;5116622;28;767;-57
2021/03/03 10:47:14;;;;;;;;;;;;;;;20.26;33.94;102273.38;5118228;28;818;-59
2021/03/03 10:49:40;;;;;;;;;;;;;;;20.34;33.56;102267.38;5118261;28;1011;-58
2021/03/03 10:52:18;;;;;;;;;;;;;;;20.32;33.78;102259.38;5118066;28;729;-59
2021/03/03 10:54:44;;;;;;;;;;;;;;;20.28;33.83;102257.41;5117873;28;1005;-59
2021/03/03 10:57:09;;;;;;;;;;;;;;;20.32;33.58;102256.59;5118013;28;1976;-58
2021/03/03 10:59:36;;;;;;;;;;;;;;;20.40;33.44;102249.78;5117731;28;878;-58
2021/03/03 11:02:05;;;;;;;;;;;;;;;20.46;33.53;102254.25;5116951;28;827;-58
2021/03/03 11:04:37;;;;;;;;;;;;;;;20.48;33.37;102259.50;5117651;28;858;-58
2021/03/03 11:07:03;;;;;;;;;;;;;;;20.36;33.83;102254.16;5117817;28;798;-56
2021/03/03 11:09:28;;;;;;;;;;;;;;;20.45;33.47;102260.84;5116496;28;978;-59
2021/03/03 11:11:57;;;;;;;;;;;;;;;20.44;33.56;102248.16;5117371;28;775;-59
2021/03/03 11:14:27;;;;;;;;;;;;;;;20.42;33.62;102249.50;5117326;28;934;-59
2021/03/03 11:16:53;;;;;;;;;;;;;;;20.39;33.76;102255.56;5117437;28;1905;-58
2021/03/03 11:19:19;;;;;;;;;;;;;;;20.44;33.51;102253.69;5117887;28;782;-59
2021/03/03 11:21:44;;;;;;;;;;;;;;;20.32;33.71;102248.31;5117148;28;929;-58
2021/03/03 11:24:10;;;;;;;;;;;;;;;20.26;33.88;102231.97;5117166;28;938;-59
2021/03/03 11:26:36;;;;;;;;;;;;;;;20.06;34.40;102236.22;5117465;28;869;-59
2021/03/03 11:29:01;;;;;;;;;;;;;;;20.15;34.12;102242.09;5116166;28;727;-59
2021/03/03 11:31:27;;;;;;;;;;;;;;;20.29;33.67;102234.22;5117393;28;855;-59
2021/03/03 11:33:53;;;;;;;;;;;;;;;20.34;33.69;102234.25;5117284;28;811;-59
2021/03/03 11:36:18;;;;;;;;;;;;;;;20.19;33.91;102246.00;5116940;28;1901;-59
2021/03/03 11:38:44;;;;;;;;;;;;;;;20.13;34.03;102238.75;5115630;28;873;-59
2021/03/03 11:41:09;;;;;;;;;;;;;;;20.21;33.82;102238.28;5116870;28;1049;-59
2021/03/03 11:43:35;;;;;;;;;;;;;;;20.32;34.00;102245.56;5116761;28;814;-59
2021/03/03 11:46:00;;;;;;;;;;;;;;;20.31;33.65;102232.00;5117108;28;834;-59
2021/03/03 11:48:25;;;;;;;;;;;;;;;20.30;33.74;102227.56;5117170;28;838;-59
2021/03/03 11:50:51;;;;;;;;;;;;;;;20.25;34.07;102227.56;5116853;28;1157;-59
2021/03/03 11:53:16;;;;;;;;;;;;;;;20.14;33.98;102221.91;5116685;28;731;-59
2021/03/03 11:55:42;;;;;;;;;;;;;;;20.21;34.16;102220.88;5116695;28;950;-59
2021/03/03 11:58:07;;;;;;;;;;;;;;;20.29;33.81;102217.66;5116930;28;1972;-59
2021/03/03 12:00:33;;;;;;;;;;;;;;;20.18;33.95;102220.31;5116426;28;736;-59
2021/03/03 12:02:58;;;;;;;;;;;;;;;20.06;34.29;102224.34;5116806;28;774;-59
2021/03/03 12:05:24;;;;;;;;;;;;;;;20.14;34.08;102219.16;5116946;28;851;-59
2021/03/03 12:07:50;;;;;;;;;;;;;;;20.18;34.23;102217.53;5116539;28;763;-59
2021/03/03 12:10:15;;;;;;;;;;;;;;;20.26;34.22;102212.63;5116698;28;953;-59
2021/03/03 12:12:40;;;;;;;;;;;;;;;19.95;34.55;102215.13;5116717;28;861;-59
2021/03/03 12:15:06;;;;;;;;;;;;;;;20.02;34.41;102226.81;5116508;28;766;-59
2021/03/03 12:17:32;;;;;;;;;;;;;;;20.17;34.12;102224.19;5116671;28;1910;-59
2021/03/03 12:19:57;;;;;;;;;;;;;;;20.15;34.18;102218.06;5116503;28;890;-59
2021/03/03 12:22:23;;;;;;;;;;;;;;;20.20;34.35;102220.03;5115616;28;873;-59
2021/03/03 12:24:48;;;;;;;;;;;;;;;20.28;34.19;102218.72;5116298;28;993;-59
2021/03/03 12:27:14;;;;;;;;;;;;;;;20.34;34.08;102225.94;5116527;28;763;-59
2021/03/03 12:29:39;;;;;;;;;;;;;;;20.37;33.74;102214.41;5116204;28;838;-59
2021/03/03 12:32:05;;;;;;;;;;;;;;;20.23;34.04;102218.69;5116671;28;786;-59
2021/03/03 12:34:31;;;;;;;;;;;;;;;20.07;34.35;102221.31;5116424;28;850;-59
2021/03/03 12:36:56;;;;;;;;;;;;;;;20.16;34.31;102219.75;5116076;28;1909;-59
2021/03/03 12:39:22;;;;;;;;;;;;;;;20.27;34.22;102230.88;5116531;28;1032;-59
2021/03/03 12:41:47;;;;;;;;;;;;;;;20.13;34.24;102236.84;5116413;28;775;-59
2021/03/03 12:44:13;;;;;;;;;;;;;;;20.13;34.36;102228.56;5116019;28;580;-59
2021/03/03 12:46:38;;;;;;;;;;;;;;;20.15;34.31;102226.34;5116529;28;827;-59
2021/03/03 12:49:04;;;;;;;;;;;;;;;20.07;34.42;102231.53;5116086;28;944;-59
2021/03/03 12:51:29;;;;;;;;;;;;;;;20.10;34.42;102231.81;5116050;28;862;-59
2021/03/03 12:53:54;;;;;;;;;;;;;;;20.13;34.63;102236.00;5116152;28;965;-59